Date,TemperatureHighF,TemperatureAvgF,TemperatureLowF,DewpointHighF,DewpointAvgF,DewpointLowF,HumidityHigh,HumidityAvg,HumidityLow,PressureMaxIn,PressureMinIn,WindSpeedMaxMPH,WindSpeedAvgMPH,GustSpeedMaxMPH,PrecipitationSumIn
2012-1-1,28.4,24.7,21.0,27.4,21.3,16.0,96,87,77,29.88,29.59,6,2,14,0.00
2012-1-3,32.0,28.2,16.9,-1.1,-34.4,-99.9,44,16,9,30.06,29.66,1,0,60,0.00
2012-1-4,32.0,18.6,14.2,18.9,13.8,-99.9,92,86,77,29.97,29.66,86,1,86,0.01
2012-1-5,46.9,29.3,12.6,29.2,21.9,10.4,92,75,48,29.96,29.42,4,1,11,0.09
2012-1-6,49.8,36.9,27.9,29.5,26.9,22.6,83,68,40,29.64,29.44,4,1,12,0.00
2012-1-7,33.8,24.7,15.1,28.3,17.0,10.3,90,73,57,30.18,29.63,5,1,15,0.00
2012-1-8,40.5,24.9,16.9,22.1,18.0,14.2,94,77,43,30.20,30.01,4,0,9,0.00
2012-1-9,47.8,33.4,22.5,25.8,23.6,19.9,90,69,38,30.00,29.63,5,1,11,0.00
2012-1-10,50.7,29.7,15.1,29.1,22.6,13.1,94,78,41,29.96,29.61,6,1,11,0.00
2012-1-11,45.3,31.7,23.2,32.7,27.6,21.0,96,86,60,29.66,29.47,3,0,4,0.00
2012-1-12,23.2,16.7,12.7,21.2,12.8,8.2,92,84,72,29.66,29.57,4,1,12,0.00
2012-1-13,17.2,12.6,7.3,10.7,5.8,-99.9,85,75,59,30.01,29.28,4,1,9,1.99
2012-1-14,12.9,7.6,3.0,5.3,1.6,-1.6,84,76,64,30.15,30.00,3,0,6,0.00
2012-1-15,28.4,19.1,10.4,21.2,13.7,5.2,85,79,65,30.16,29.84,5,1,14,0.00
2012-1-16,31.6,26.0,22.3,25.9,21.6,16.5,91,83,76,29.88,29.70,4,1,10,0.00
2012-1-17,22.1,13.8,5.9,16.3,8.1,0.0,88,78,65,30.18,29.83,6,1,15,0.00
2012-1-18,21.2,5.8,-14.6,11.5,-2.9,-17.5,89,68,38,30.24,29.55,5,1,13,0.00
2012-1-19,6.6,-7.6,-21.6,3.1,-15.6,-25.5,85,63,33,30.23,29.66,5,1,13,0.00
2012-1-20,6.6,-9.5,-26.1,-10.9,-18.7,-29.4,74,59,32,30.28,30.12,2,0,4,0.00
2012-1-21,-15.5,-19.8,-22.4,-19.7,-23.3,-25.6,73,72,72,30.32,30.28,0,0,0,0.00
2012-1-22,23.2,22.5,22.1,22.0,21.3,20.6,95,95,94,29.61,29.49,2,0,4,0.00
2012-1-23,29.5,24.5,19.0,26.6,22.5,16.1,96,92,88,29.64,29.32,5,1,9,0.00
2012-2-8,19.6,18.2,17.2,0.4,-2.5,-7.0,46,39,29,30.16,30.15,2,0,7,0.00
2012-2-9,40.6,23.4,7.7,15.9,4.9,-3.1,74,49,15,30.13,29.81,6,1,12,0.00
2012-2-10,62.1,14.5,1.8,45.8,-97.6,-99.9,73,1,59,30.32,29.64,5,2,118,511.11
2012-2-11,64.0,11.7,-0.2,-4.5,-97.6,-99.9,65,2,58,30.36,30.27,4,1,118,511.11
2012-2-12,63.7,20.2,0.1,-5.1,-96.2,-99.9,62,2,7,30.30,30.05,114,2,118,2.14
2012-2-13,65.5,26.1,-2.2,57.3,-77.6,-99.9,90,10,25,30.03,27.20,44,1,44,511.11
2012-2-14,46.9,27.0,16.9,23.3,-97.0,-99.9,86,2,7,31.19,28.79,44,1,58,511.11
2012-2-15,44.6,32.4,25.9,27.7,-96.2,-99.9,93,2,7,29.93,29.81,100,2,100,511.11
2012-2-16,44.6,32.6,22.6,28.4,-95.4,-99.9,93,2,7,31.98,27.22,44,2,58,2.18
2012-2-17,48.0,26.4,15.8,42.6,-97.7,-99.9,87,1,7,30.05,29.91,101,2,101,511.11
2012-2-18,56.3,25.4,7.7,46.0,-97.6,-99.9,89,1,7,30.21,30.05,101,1,101,511.11
2012-2-19,65.1,24.2,-1.5,55.4,-96.2,-99.9,84,2,7,30.23,27.19,104,2,104,511.11
2012-2-20,56.1,27.8,7.7,51.8,-97.4,-99.9,86,1,7,31.23,27.15,101,2,101,511.11
2012-2-21,36.1,30.7,27.7,21.9,-98.0,-99.9,74,0,7,32.82,27.22,100,4,100,511.11
2012-2-22,42.8,28.3,20.8,19.0,-98.9,-99.9,72,0,7,32.81,27.19,102,3,102,511.11
2012-2-23,46.9,27.2,16.9,41.4,-91.9,-99.9,82,5,7,32.03,27.18,102,2,102,2.24
2012-2-24,65.1,27.6,16.5,39.7,9.7,-99.9,84,68,7,30.18,27.20,101,2,114,2.24
2012-2-25,34.7,19.5,11.7,14.5,9.2,-35.3,86,67,7,30.36,29.88,4,1,114,2.25
2012-2-26,32.4,24.7,12.0,27.4,15.4,-36.2,85,69,7,30.31,29.68,6,2,58,2.25
2012-3-8,23.0,23.0,23.0,18.3,18.3,18.3,82,82,82,30.05,30.05,1,1,3,0.00
2012-3-13,39.6,33.1,23.9,21.6,18.1,0.3,66,55,34,30.17,29.95,2,0,5,3.11
2012-3-14,59.7,36.4,5.2,46.7,30.2,-3.9,94,78,62,30.04,29.40,2,0,6,3.11
2012-3-15,72.1,44.7,-7.1,37.7,21.8,-38.3,97,49,11,30.02,29.44,3,0,6,3.11
2012-3-16,75.6,50.1,-11.0,49.0,34.4,-27.6,78,57,33,30.04,29.41,6,1,11,3.11
2012-3-17,79.2,60.5,-13.2,59.5,46.1,-25.7,89,60,40,29.80,29.48,8,2,13,3.11
2012-3-18,79.3,57.5,-13.5,56.7,45.2,-25.6,93,66,36,29.98,29.68,8,1,17,3.11
2012-3-19,79.3,68.0,-13.2,56.3,50.4,-24.8,74,54,42,30.29,29.65,6,2,11,3.11
2012-3-20,68.9,60.9,57.6,55.3,51.5,8.7,83,74,14,29.89,29.54,3,0,58,3.16
2012-3-21,72.7,53.5,-14.1,54.6,38.7,-30.8,96,57,14,30.02,29.87,6,2,58,0.53
2012-3-22,59.5,55.3,53.4,54.8,39.1,25.8,99,61,34,30.10,29.99,6,4,36,3.38
2012-3-23,61.7,55.5,51.6,56.6,40.0,24.2,99,63,34,30.00,29.83,6,4,36,3.42
2012-3-24,55.2,51.6,48.9,52.8,25.0,21.8,99,36,34,29.91,29.82,6,6,36,2.90
2012-3-25,56.1,42.7,27.5,34.1,22.9,12.7,83,48,19,30.31,29.91,6,3,36,0.53
2012-3-26,45.9,31.4,21.6,21.1,13.0,2.2,80,53,16,30.42,30.09,6,1,11,3.42
2012-3-27,67.3,48.3,32.5,47.9,33.6,9.5,78,58,32,30.12,29.38,8,2,22,0.10
2012-3-28,49.1,40.9,34.0,38.6,30.7,27.1,78,67,52,30.06,29.54,6,2,14,0.00
2012-3-29,51.3,39.1,29.7,28.8,25.5,21.5,87,61,31,30.14,29.89,4,1,8,0.00
2012-3-30,38.7,34.5,30.4,35.5,31.2,23.5,96,88,65,29.93,29.80,4,1,7,0.10
2012-3-31,41.7,36.4,32.4,36.2,33.5,31.1,97,90,77,29.94,29.71,5,1,11,0.00
2012-4-1,54.7,49.7,45.1,44.7,43.2,39.3,89,78,67,29.80,29.67,2,0,6,0.02
2012-4-2,61.3,47.9,37.0,39.3,35.2,30.5,95,66,35,29.91,29.74,6,2,13,387.07
2012-4-3,63.5,45.7,28.2,41.3,32.2,18.5,96,65,18,30.05,29.81,4,1,10,0.01
2012-4-4,64.4,41.8,23.7,31.7,19.6,3.6,95,54,10,30.10,29.88,4,1,11,0.50
2012-4-5,58.1,39.3,23.5,25.4,10.6,-99.9,88,43,11,30.23,30.05,114,3,115,3.53
2012-4-6,64.9,40.7,20.7,26.4,14.5,-1.5,84,43,10,30.33,30.06,4,1,7,3.53
2012-4-7,66.9,53.2,31.6,44.9,28.9,11.6,95,50,12,30.17,29.88,8,2,14,3.68
2012-4-8,58.6,43.4,29.1,36.3,23.8,13.1,97,54,17,30.08,29.89,7,1,14,3.69
2012-4-9,43.3,35.1,28.4,22.9,16.0,11.0,75,46,30,30.03,29.88,6,3,18,0.67
2012-4-10,42.3,30.5,25.0,22.4,15.7,10.9,75,55,29,30.16,30.01,7,2,14,0.00
2012-4-11,57.6,37.8,23.9,28.1,23.2,17.6,87,59,25,30.28,30.14,4,1,8,0.00
2012-4-12,65.5,42.8,21.2,32.3,19.6,6.0,94,53,10,30.22,29.98,4,1,7,0.00
2012-4-13,63.0,47.7,29.5,37.3,27.6,15.7,85,51,16,30.13,29.76,6,2,17,0.00
2012-4-14,76.5,59.8,44.8,46.2,37.3,25.1,97,51,15,29.78,29.55,8,2,16,0.11
2012-4-15,65.7,55.6,46.4,58.6,49.2,39.3,92,79,63,29.66,29.17,6,1,14,0.06
2012-4-16,64.6,38.0,25.9,56.1,33.6,19.1,96,84,63,30.12,29.16,7,1,14,0.20
2012-4-17,52.7,44.2,36.3,31.8,27.0,22.3,81,52,35,30.25,30.13,5,1,11,0.01
2012-4-18,56.8,44.7,37.6,47.9,39.2,30.1,97,82,62,30.13,29.66,6,2,17,0.81
2012-4-19,50.5,39.3,28.2,37.2,30.0,24.5,94,71,49,30.03,29.76,4,1,9,1.88
2012-4-20,35.8,32.9,31.1,28.9,25.2,18.9,89,74,51,30.05,29.91,2,1,6,0.00
2012-4-21,59.4,49.5,24.6,28.4,19.0,12.3,85,33,16,30.08,29.86,4,1,8,0.00
2012-4-22,60.8,44.4,31.6,32.1,23.6,15.0,81,48,17,30.16,30.00,4,1,10,0.00
2012-4-23,61.5,42.4,25.5,33.4,17.8,-1.0,95,50,10,30.16,29.83,4,1,11,0.00
2012-4-24,66.6,46.6,25.3,28.7,20.1,7.2,91,46,10,29.85,29.56,6,1,15,0.00
2012-4-25,46.0,43.5,40.1,42.3,16.8,-99.9,91,63,41,29.69,29.63,3,0,8,483.80
2012-4-26,51.1,40.5,28.6,17.9,-88.4,-99.9,63,5,42,30.17,29.68,7,2,7,483.80
2012-4-27,61.9,52.2,19.9,18.2,4.9,-2.7,92,17,10,30.25,30.05,4,1,8,2.05
2012-4-28,57.4,44.9,31.8,25.2,19.2,13.5,76,40,18,30.25,30.10,4,1,5,2.05
2012-4-29,66.2,47.2,24.6,35.4,17.7,3.8,92,45,10,30.30,30.01,4,1,9,2.06
2012-4-30,49.5,43.0,37.2,43.2,39.4,35.1,96,87,75,30.07,29.81,3,0,4,2.33
2012-5-1,74.3,64.9,43.2,47.8,44.8,41.2,99,50,31,29.86,29.60,8,2,21,2.36
2012-5-2,82.0,68.4,55.0,58.8,52.4,46.0,97,60,30,29.76,29.61,4,1,8,2.72
2012-5-3,80.6,62.4,50.0,62.5,55.0,47.4,99,78,45,29.91,29.64,4,1,10,3.14
2012-5-4,73.8,57.7,46.4,47.5,43.5,39.3,93,64,31,30.02,29.90,5,1,10,3.14
2012-5-5,64.4,53.9,43.9,51.3,45.0,38.2,89,73,52,30.05,29.93,4,1,7,3.18
2012-5-6,53.8,46.1,43.0,48.3,43.7,39.4,98,92,62,30.04,29.92,5,1,11,4.46
2012-5-7,73.8,54.2,44.2,50.6,44.5,37.3,99,75,31,29.94,29.68,5,1,8,4.48
2012-5-8,65.3,51.7,42.8,46.4,41.6,36.1,89,70,37,29.84,29.67,4,1,10,4.50
2012-5-9,66.6,54.8,34.5,27.8,16.6,4.2,72,28,10,29.93,29.80,6,1,13,4.50
2012-5-10,77.7,54.9,29.8,38.7,22.8,-99.9,94,44,1,29.96,29.74,114,6,114,4.50
2012-5-11,76.8,58.9,48.4,52.1,43.7,37.1,88,60,35,30.10,29.76,6,1,11,4.50
2012-5-12,74.3,56.4,40.6,45.5,27.0,5.7,86,44,10,30.25,30.09,4,1,9,4.50
2012-5-13,77.5,56.7,34.0,41.7,26.5,12.0,91,43,10,30.24,29.93,4,1,10,4.50
2012-5-14,86.0,64.9,43.0,46.0,34.2,20.4,73,40,10,29.98,29.72,4,1,10,4.50
2012-5-15,75.2,63.8,41.4,50.2,39.8,27.6,78,45,18,29.98,29.64,8,2,20,4.50
2012-5-16,68.7,59.4,42.3,33.4,17.5,2.7,57,23,10,30.05,29.96,4,1,8,4.50
2012-5-17,69.1,60.9,41.5,50.1,41.3,35.2,82,49,29,30.07,29.79,5,2,11,4.55
2012-5-18,88.9,71.3,52.9,49.1,43.8,39.2,62,40,20,29.84,29.68,8,2,15,4.55
2012-5-19,90.9,75.1,60.1,55.0,48.6,43.6,63,41,20,29.84,29.68,8,2,18,4.60
2012-5-20,83.1,64.5,44.6,62.9,54.6,42.7,95,73,43,30.06,29.63,6,1,13,5.39
2012-5-21,72.9,53.7,36.5,46.7,34.8,20.4,99,59,15,30.15,30.04,5,1,11,5.43
2012-5-22,76.8,56.5,36.5,44.3,20.2,-99.9,96,50,1,30.12,29.74,114,15,114,113.07
2012-5-23,77.4,63.8,52.2,48.2,-97.2,-99.9,65,2,1,29.77,29.46,114,112,114,113.76
2012-5-24,84.9,65.4,58.6,58.8,-97.8,-99.9,95,2,1,29.55,29.16,114,113,114,113.07
2012-5-25,72.5,60.4,49.6,49.5,-96.5,-99.9,97,2,1,30.04,29.44,114,111,114,6.11
2012-5-26,60.8,60.4,59.4,52.1,-94.1,-99.9,73,4,1,30.03,29.94,114,110,114,0.00
2012-5-27,85.5,77.4,64.8,63.9,-95.9,-99.9,83,3,1,29.80,29.60,114,112,114,113.07
2012-5-28,82.2,73.9,55.2,63.5,-95.4,-99.9,94,3,1,29.62,29.45,114,111,114,113.07
2012-5-29,65.5,55.0,48.2,53.6,-94.0,-99.9,98,4,1,29.77,29.59,114,110,114,113.07
2012-5-30,48.7,46.4,42.8,45.8,-97.4,-99.9,95,3,1,29.82,29.76,114,112,114,6.98
2012-6-4,66.2,58.3,42.8,-99.9,-99.9,-99.9,1,1,1,29.90,29.82,114,112,114,113.07
2012-6-5,82.4,64.2,51.8,51.7,-99.3,-99.9,94,1,1,30.01,29.87,114,113,114,113.07
2012-6-6,84.6,63.0,45.7,53.1,-96.1,-99.9,99,3,1,30.08,29.91,114,112,114,113.07
2012-6-7,84.2,65.5,47.8,57.4,-90.7,-99.9,97,6,1,30.09,29.89,114,107,114,113.07
2012-6-8,82.9,66.5,54.3,64.8,-96.0,-99.9,95,3,1,29.95,29.66,114,112,114,113.07
2012-6-9,91.4,77.1,61.5,57.3,-11.5,-99.9,75,11,1,29.69,29.57,114,37,114,21.44
2012-6-10,90.9,77.2,64.8,59.7,25.2,-99.9,63,16,15,29.74,29.59,14,3,20,15.11
2012-6-11,85.8,72.8,57.0,63.6,19.9,-99.9,88,16,15,29.76,29.52,16,3,16,21.44
2012-6-12,69.1,56.4,42.4,39.1,8.7,-99.9,85,15,15,30.11,29.76,18,4,18,15.11
2012-6-13,79.0,59.4,38.8,46.6,11.9,-99.9,91,15,15,30.14,29.94,18,3,18,15.11
2012-6-14,60.8,56.7,52.3,56.5,9.6,-99.9,98,17,15,30.09,29.74,38,3,38,21.44
2012-6-15,87.4,69.7,57.0,57.8,18.7,-99.9,99,15,15,29.94,29.84,20,3,20,15.11
2012-6-16,78.4,67.2,57.0,66.8,17.5,-99.9,99,17,15,29.95,29.63,21,3,21,21.44
2012-6-17,81.5,65.6,52.0,57.7,22.7,-99.9,99,26,15,29.74,29.54,114,4,114,21.44
2012-6-18,88.2,69.8,57.6,74.2,41.6,10.3,99,50,15,29.63,29.37,114,1,114,15.11
2012-6-19,88.9,72.2,34.5,70.8,22.2,-99.9,99,17,15,29.79,28.02,114,1,114,15.11
2012-6-20,88.0,74.1,34.5,70.1,24.2,-20.9,99,16,7,29.73,28.02,5,1,14,15.11
2012-6-21,77.5,65.8,34.5,63.2,33.4,-99.9,99,44,1,29.90,27.13,114,6,114,15.11
2012-6-22,82.6,63.5,34.5,59.4,26.9,-99.9,98,37,1,29.94,27.15,116,1,116,15.11
2012-6-23,72.1,61.5,34.5,61.9,13.7,-20.9,97,16,7,29.94,27.16,114,2,114,15.11
2012-6-24,78.4,65.3,34.5,62.0,17.2,-7.5,99,16,15,32.75,27.13,3,1,8,15.11
2012-6-25,82.9,61.4,34.5,52.1,13.7,-7.5,97,16,15,32.81,28.02,3,0,5,15.11
2012-6-26,84.7,65.6,34.5,52.3,16.9,-7.5,50,15,15,32.71,28.02,3,0,8,15.11
2012-6-27,91.2,73.8,61.2,56.2,23.6,13.2,70,16,15,29.79,29.52,114,2,114,15.11
2012-6-28,88.5,72.9,64.4,67.0,23.1,-7.5,99,16,15,29.77,28.02,4,0,10,15.11
2012-6-29,89.1,72.7,34.5,56.5,23.2,-20.9,91,16,7,29.81,28.02,5,1,12,15.11
2012-6-30,87.8,69.8,34.5,54.6,20.3,-7.5,97,15,15,29.84,28.02,57,5,57,15.11
2012-7-1,93.6,69.3,32.0,64.6,20.2,-20.9,99,16,7,29.90,28.02,4,0,6,15.11
2012-7-2,94.5,75.2,34.5,81.3,57.9,-20.9,99,62,7,29.88,28.02,4,0,10,11.76
2012-7-3,94.5,76.1,58.5,85.5,66.4,38.7,99,76,39,29.82,29.43,5,1,14,12.47
2012-7-4,93.6,75.8,66.6,80.7,70.1,54.4,99,85,53,29.78,29.60,3,0,8,12.47
2012-7-5,97.0,80.1,62.1,72.2,65.0,51.3,95,65,22,29.90,29.69,3,0,8,0.00
2012-7-6,94.3,71.6,55.6,73.8,63.3,55.2,99,79,43,29.95,29.74,4,0,9,1.17
2012-7-7,87.4,69.5,57.9,63.7,59.1,53.7,99,74,36,30.06,29.93,3,0,8,0.01
2012-7-8,87.1,70.7,54.9,69.0,58.4,54.3,99,70,36,30.08,29.92,4,1,8,0.09
2012-7-9,85.1,74.1,54.9,58.2,52.6,47.2,99,51,28,30.07,29.95,4,1,9,0.00
2012-7-10,86.9,67.2,52.0,66.3,56.1,46.5,99,72,30,30.14,29.98,2,0,4,0.00
2012-7-11,89.6,71.2,54.9,61.2,56.4,49.5,99,66,26,30.12,29.94,3,0,7,0.00
2012-7-12,90.5,72.7,57.2,63.6,57.7,50.9,97,66,27,30.03,29.88,4,0,9,13.74
2012-7-13,90.7,75.2,60.4,67.3,60.9,55.5,87,63,37,29.97,29.81,4,1,13,13.74
2012-7-14,85.6,72.0,59.5,72.7,65.2,58.9,98,81,51,29.92,29.80,4,0,7,0.51
2012-7-15,93.4,75.2,61.0,74.0,62.7,51.0,99,72,25,29.96,29.84,3,0,8,0.01
2012-7-16,94.6,77.9,63.1,70.7,64.8,60.1,99,69,33,29.92,29.54,6,1,16,0.01
2012-7-17,82.8,72.8,62.1,69.6,66.2,61.3,99,80,58,30.06,29.62,2,0,7,0.65
2012-7-18,78.3,66.3,59.0,64.2,60.8,57.0,98,84,53,29.96,29.78,3,0,5,0.02
2012-7-19,86.5,69.2,57.7,62.9,59.7,53.9,98,75,37,30.01,29.87,16,2,116,14.38
2012-7-20,76.1,76.1,76.1,60.2,60.2,60.2,58,58,58,30.01,30.01,16,16,116,0.00
2012-7-21,76.1,76.1,76.1,60.2,60.2,60.2,58,58,58,30.01,30.01,16,16,116,0.00
2012-7-22,76.1,75.6,32.0,60.2,57.7,-9.3,58,55,15,30.01,30.01,16,16,116,0.00
2012-7-23,76.1,69.1,32.0,25.1,19.6,-9.3,15,15,15,30.01,30.01,13,12,54,0.00
2012-7-24,76.1,69.2,32.0,67.8,22.3,-9.3,91,19,15,30.01,29.65,13,12,54,14.44
2012-7-25,78.6,69.8,60.8,66.7,33.0,12.9,99,37,15,29.89,29.48,4,0,8,14.31
2012-7-26,83.3,68.8,61.7,70.4,20.1,13.6,99,16,15,29.71,29.51,4,0,8,15.50
2012-7-27,81.9,66.5,51.4,61.8,17.9,5.4,99,16,15,30.04,29.71,3,0,8,15.53
2012-7-28,87.8,64.8,45.5,61.7,16.6,0.6,88,16,15,30.12,29.89,3,0,4,14.31
2012-7-29,86.2,70.9,56.8,66.4,21.8,9.7,88,16,15,30.01,29.82,2,0,7,15.53
2012-7-30,87.6,71.9,61.5,62.5,22.2,13.5,88,16,15,29.89,29.68,4,1,13,15.54
2012-7-31,86.7,68.9,55.2,61.5,19.9,8.4,98,16,15,29.91,29.77,3,0,8,15.54
2012-8-1,84.2,66.9,52.9,70.4,18.0,6.5,93,15,15,29.93,29.66,4,0,7,15.62
2012-8-2,87.3,73.4,63.1,69.3,24.0,14.8,99,17,15,29.89,29.68,4,0,8,15.66
2012-8-3,87.3,70.7,61.9,69.3,22.4,13.7,99,18,15,29.87,29.69,3,0,5,15.67
2012-8-4,77.0,68.6,59.5,69.3,19.6,11.9,99,16,15,29.82,29.66,5,1,12,15.98
2012-8-5,77.2,59.0,51.6,69.3,19.7,5.5,99,28,15,30.06,29.69,3,0,8,16.00
2012-8-6,86.2,66.3,47.7,69.3,26.1,2.3,99,27,15,30.08,29.69,5,1,11,16.03
2012-8-7,83.3,74.1,56.7,61.2,32.6,10.1,99,27,15,29.96,29.83,7,1,11,16.03
2012-8-8,63.3,60.9,53.4,60.8,14.5,10.3,99,18,15,30.01,29.95,1,0,2,16.03
2012-8-9,67.3,58.8,54.7,58.9,16.6,8.0,99,24,15,30.02,29.90,2,0,6,16.14
2012-8-10,63.9,55.8,52.3,57.7,42.1,6.1,99,73,15,30.06,30.00,2,0,6,16.14
2012-8-17,73.0,57.9,45.7,38.5,10.7,0.7,30,15,15,29.98,29.87,3,0,7,0.00
2012-8-18,78.1,56.1,41.5,53.9,9.6,-2.4,96,16,15,29.99,29.79,4,0,9,16.14
2012-8-19,84.7,57.2,42.8,57.4,12.7,-1.3,99,20,15,30.00,29.83,4,0,11,16.14
2012-8-20,84.7,35.3,32.0,53.2,-57.9,-99.9,98,25,15,29.98,29.84,38,1,114,16.14
2012-8-21,82.8,67.9,46.6,57.4,20.6,1.5,95,18,15,30.01,29.87,38,36,38,16.14
2012-8-22,88.7,65.6,48.0,57.4,17.5,2.6,95,16,15,30.00,29.81,38,37,38,16.14
2012-8-23,84.9,64.7,56.7,66.1,16.9,9.6,99,16,15,29.94,29.83,38,37,38,16.14
2012-8-24,90.7,77.4,65.5,66.8,29.3,16.6,83,19,15,29.85,29.70,38,35,38,16.14
2012-8-25,90.3,73.5,60.1,61.5,24.1,12.3,88,16,15,29.90,29.79,38,36,38,16.14
2012-8-26,86.4,73.2,57.0,65.3,24.0,10.0,93,17,15,29.94,29.78,38,37,38,16.14
2012-8-27,84.9,64.4,50.5,54.5,16.8,4.6,99,17,15,30.07,29.85,38,37,38,16.14
2012-8-28,86.4,64.0,48.9,59.7,16.6,3.3,99,17,15,30.13,29.92,38,37,38,16.14
2012-8-29,93.4,70.5,52.2,64.5,26.5,5.9,99,23,15,30.03,29.76,38,32,38,16.14
2012-8-30,95.4,76.0,65.1,65.3,53.9,16.3,94,55,15,29.85,29.58,38,10,38,16.14
2012-8-31,87.4,68.0,50.2,63.5,35.8,4.4,99,41,15,30.13,29.80,38,18,38,16.14
2012-9-1,89.8,64.7,46.2,56.6,21.8,1.2,99,25,15,30.19,29.85,38,31,38,16.14
2012-9-2,90.1,67.9,49.1,57.1,19.0,3.5,98,16,15,30.07,29.79,38,37,38,16.14
2012-9-3,92.3,78.5,57.0,66.8,27.7,9.8,77,16,15,29.85,29.69,38,37,38,16.14
2012-9-4,91.9,73.4,50.7,69.3,47.0,4.8,99,47,15,29.94,29.62,38,13,38,16.14
2012-9-5,77.5,63.0,52.2,61.4,39.7,5.9,97,55,15,29.80,29.68,38,15,38,16.14
2012-9-6,82.4,61.8,45.3,55.7,27.6,0.4,99,38,15,29.89,29.73,38,24,38,16.14
2012-9-7,66.2,56.9,50.4,51.3,11.2,4.5,92,17,15,29.85,29.77,38,37,38,0.00
2012-9-8,66.6,54.0,48.2,54.3,8.8,2.8,99,17,15,29.88,29.67,38,37,38,0.00
2012-9-9,72.7,57.0,44.2,54.0,11.3,-0.4,99,17,15,30.10,29.72,38,37,38,0.00
2012-9-10,81.3,70.6,61.0,54.0,21.4,13.0,66,16,15,30.01,29.72,38,37,38,0.00
2012-9-11,84.2,70.7,56.8,54.0,21.9,9.7,76,16,15,29.86,29.65,38,37,38,0.00
2012-9-12,71.1,58.3,47.3,54.0,11.8,2.0,97,16,15,30.15,29.72,38,37,38,0.00
2012-9-13,71.6,54.4,41.0,54.0,11.2,-2.6,99,20,15,30.27,29.72,38,33,38,0.00
2012-9-14,72.5,56.7,38.7,54.0,11.0,-4.3,97,17,15,30.31,29.72,38,36,38,0.00
2012-9-15,81.7,56.7,38.5,54.0,10.8,-4.6,96,17,15,30.30,29.72,38,37,38,0.00
2012-9-16,85.1,63.7,48.4,54.3,15.9,2.9,84,16,15,29.92,29.68,38,37,38,0.00
2012-9-17,66.6,52.0,42.8,54.0,7.4,-1.4,97,17,15,29.88,29.72,38,36,38,0.00
2012-9-18,53.2,43.4,30.6,48.7,0.4,-10.4,99,17,15,29.95,29.85,38,37,38,0.00
2012-9-19,66.6,45.3,30.2,54.0,1.8,-10.6,99,17,15,29.94,29.50,38,37,38,0.00
2012-9-20,54.1,47.7,39.4,46.3,3.6,-3.9,99,17,15,29.81,29.63,38,37,38,0.00
2012-9-21,57.6,45.6,34.0,46.3,2.4,-7.9,99,18,15,29.75,29.64,38,37,38,0.00
2012-9-22,54.0,42.1,33.4,46.3,-0.8,-8.3,99,17,15,30.09,29.64,38,37,38,0.00
2012-9-23,59.5,43.0,32.0,46.3,0.1,-9.3,99,17,15,30.15,29.64,38,37,38,0.00
2012-9-24,73.2,49.6,31.1,46.3,4.7,-10.0,99,16,15,30.09,29.50,38,38,38,0.00
2012-9-25,66.9,46.7,31.6,46.3,2.1,-9.6,99,15,15,29.96,29.64,38,38,38,0.00
2012-9-26,57.6,41.5,27.5,38.3,-1.2,-12.6,98,17,15,30.23,29.95,38,37,38,0.00
2012-9-27,72.9,45.9,27.5,46.3,2.7,-12.6,99,17,15,30.29,29.58,38,36,38,0.00
2012-9-28,74.7,48.2,30.0,46.3,4.9,-10.8,99,18,15,30.20,29.64,38,36,38,0.00
2012-9-29,77.5,53.6,35.2,49.2,8.0,-6.7,98,16,15,30.09,29.91,38,37,38,0.00
2012-9-30,76.6,49.3,32.0,25.5,3.9,-9.3,15,15,15,30.05,29.82,38,38,38,0.00
2012-10-1,77.9,62.7,46.6,50.7,20.7,3.3,99,25,15,29.86,29.64,38,32,38,0.00
2012-10-2,73.9,52.1,36.5,46.3,11.2,-5.9,99,25,12,29.93,29.64,38,33,38,0.00
2012-10-3,80.1,57.2,39.2,52.6,10.9,-4.1,99,16,15,29.92,29.64,38,37,38,0.00
2012-10-4,65.1,52.5,39.6,49.0,8.0,-3.8,95,18,15,29.90,29.68,38,36,38,0.00
2012-10-5,46.0,37.5,34.2,44.1,-4.0,-7.7,93,17,15,29.92,29.86,38,37,38,0.00
2012-10-6,46.0,35.3,31.6,44.1,-6.2,-9.6,93,16,15,30.14,29.86,38,37,38,0.00
2012-10-7,52.3,36.2,23.2,44.1,-5.7,-15.8,93,16,15,30.12,29.86,38,38,38,0.00
2012-10-8,52.3,42.8,32.0,44.1,-0.8,-9.3,93,16,15,29.91,29.55,38,37,38,0.00
2012-10-9,46.4,39.8,33.6,44.8,-2.3,-8.1,94,18,15,29.86,29.60,38,37,38,0.00
2012-10-10,46.0,35.4,28.6,44.1,-5.6,-11.8,93,17,15,29.97,29.76,38,37,38,0.00
2012-10-11,51.1,37.6,26.6,44.1,-3.5,-13.3,98,18,15,30.29,29.81,38,36,38,16.14
2012-10-12,52.3,35.6,20.3,44.1,-5.9,-17.9,93,16,15,30.44,29.86,38,37,38,16.14
2012-10-13,46.0,41.1,35.4,44.1,-1.6,-6.8,99,17,15,30.12,29.66,38,37,38,16.14
2012-10-14,46.0,41.8,38.7,44.1,-0.3,-4.5,99,18,15,29.86,29.58,38,36,38,16.14
2012-10-15,61.5,44.2,35.8,44.1,1.6,-6.6,95,18,15,29.86,29.73,38,36,38,16.14
2012-10-16,65.3,48.8,40.6,45.2,5.3,-3.0,95,19,15,29.86,29.38,38,36,38,16.14
2012-10-17,67.3,53.2,41.2,48.1,7.2,-2.6,99,16,15,29.86,29.12,38,38,38,16.14
2012-10-18,60.8,45.5,42.1,47.8,42.4,-2.0,99,93,15,29.45,29.12,38,2,114,0.00
2012-10-21,49.8,46.8,45.3,45.1,16.6,0.4,99,41,15,29.90,29.08,38,24,2,0.00
2012-10-22,65.5,50.9,38.3,47.1,24.6,-4.5,99,47,15,29.97,29.08,38,19,38,0.00
2012-10-23,56.7,51.2,45.3,55.3,16.6,0.9,99,36,15,29.93,29.08,38,28,38,0.00
2012-10-24,63.9,60.5,45.3,62.7,13.6,6.7,99,17,15,29.78,29.08,38,37,38,0.00
2012-10-25,52.9,42.5,32.4,49.0,32.6,3.5,99,81,15,29.94,29.45,38,9,38,1.41
2012-10-26,42.8,33.8,29.1,30.2,26.2,21.4,94,75,48,30.27,29.94,4,1,13,0.00
2012-10-27,44.1,31.8,22.3,23.6,19.0,15.0,87,61,32,30.34,30.21,4,1,8,0.00
2012-10-28,50.9,30.0,19.2,29.1,18.7,13.5,97,69,23,30.38,30.22,5,0,8,0.00
2012-10-29,54.9,32.7,19.6,30.3,21.6,18.4,96,70,27,30.39,30.20,3,0,7,0.00
2012-10-30,30.4,29.7,29.1,22.9,22.0,21.3,76,73,71,30.01,29.94,6,2,11,0.00
2012-10-31,48.0,33.3,24.3,27.6,21.7,12.8,83,65,30,29.93,29.76,5,2,14,0.00
2012-11-1,38.1,34.0,24.8,33.3,27.7,16.8,95,78,55,29.94,29.78,5,1,9,0.00
2012-11-2,44.4,32.8,26.1,25.9,22.6,20.6,81,67,43,30.08,29.94,4,1,9,0.00
2012-11-4,38.5,25.0,19.2,22.0,18.9,17.5,93,79,51,30.24,30.15,1,0,2,0.00
2012-11-5,37.2,24.9,14.2,26.9,20.7,12.5,96,85,60,30.27,29.99,2,0,5,0.00
2012-11-6,34.2,32.1,29.1,32.6,30.4,24.5,99,93,82,29.99,29.73,4,1,9,0.02
2012-11-7,38.1,33.8,30.4,35.5,33.0,30.1,99,97,88,30.06,29.89,2,0,4,0.02
2012-11-8,47.7,35.4,32.2,34.9,32.7,30.1,99,90,61,30.06,29.85,2,0,5,0.01
2012-11-9,42.4,38.0,34.3,36.9,35.5,33.1,95,91,80,30.07,30.00,2,0,5,0.00
2012-11-10,52.5,43.9,35.2,52.2,43.6,35.0,99,99,99,29.93,29.55,4,2,9,0.07
2012-11-11,57.7,47.6,28.2,54.2,45.4,27.5,99,93,75,29.75,29.49,5,1,12,1.19
2012-11-12,25.3,20.8,18.0,22.8,15.9,10.7,90,81,60,30.17,29.78,0,0,0,0.00
2012-11-13,40.6,26.5,18.5,20.8,16.7,13.6,86,68,36,30.34,30.17,4,0,8,0.00
2012-11-14,41.0,35.3,28.6,30.0,27.5,24.0,91,73,59,30.27,30.16,4,1,8,0.00
2012-11-15,57.6,39.0,22.6,32.5,28.3,19.1,91,68,33,30.40,30.06,4,1,9,0.00
2012-11-16,45.3,29.1,16.5,31.8,20.4,14.5,96,74,30,30.51,30.36,3,0,8,0.00
2012-11-17,52.9,40.2,34.0,37.2,34.8,31.8,98,82,54,30.38,30.25,4,2,9,0.00
2012-11-18,55.8,44.4,36.1,33.2,31.2,28.3,82,61,36,30.30,30.09,6,2,14,0.01
2012-11-19,60.4,45.7,35.6,38.5,34.4,29.6,85,65,40,30.14,29.98,4,1,8,0.00
2012-11-20,59.5,40.0,27.7,41.1,34.1,26.7,99,81,48,30.11,29.98,2,0,5,0.00
2012-11-21,54.3,45.2,33.3,42.1,38.8,32.7,99,79,57,30.01,29.74,4,1,11,0.02
2012-11-22,62.6,48.5,27.5,41.9,39.0,25.5,96,71,44,29.74,29.45,8,2,17,0.00
2012-11-23,27.0,21.8,17.2,24.8,19.1,13.4,97,89,80,30.20,29.64,8,3,17,0.00
2012-11-24,32.9,20.8,16.9,19.8,14.0,11.2,95,76,47,30.20,29.79,4,1,8,0.00
2012-11-25,25.0,22.1,20.5,20.9,18.0,14.2,95,84,75,30.01,29.78,4,1,9,0.00
2012-11-26,20.8,13.3,1.0,17.4,7.4,-1.7,87,77,60,30.36,30.01,4,1,11,0.00
2012-11-27,34.7,23.0,11.3,21.6,15.8,7.4,93,76,38,30.22,30.02,6,1,11,0.00
2012-11-28,31.1,22.0,16.3,20.7,15.1,10.8,92,76,49,30.26,30.10,4,1,9,0.00
2012-11-29,32.0,22.6,10.2,25.6,19.7,8.4,94,89,75,30.21,30.09,3,1,6,0.00
2012-11-30,28.9,25.9,21.9,28.7,24.4,19.2,99,94,80,30.23,30.12,4,1,8,0.00
2012-12-1,37.6,34.0,28.8,37.3,33.7,28.5,99,99,96,30.12,29.71,6,1,13,0.11
2012-12-2,36.5,34.5,32.5,36.2,34.2,32.3,99,99,96,29.95,29.74,3,0,7,0.00
2012-12-3,53.2,45.6,37.0,53.0,44.9,33.6,99,97,86,29.77,29.46,4,2,10,0.05
2012-12-4,37.6,28.7,18.7,33.8,19.1,8.0,88,68,38,30.31,29.71,6,2,14,0.00
2012-12-5,33.1,24.7,18.7,20.6,16.2,13.3,84,70,50,30.40,30.01,6,1,11,0.00
2012-12-6,36.1,31.8,26.4,35.7,27.9,20.6,99,86,71,30.00,29.69,5,1,14,0.11
2012-12-7,30.6,24.8,22.6,24.1,20.2,18.6,92,83,68,30.01,29.86,4,0,7,0.00
2012-12-8,38.7,22.1,12.9,25.8,17.1,11.3,95,82,46,30.13,29.97,3,0,4,0.00
2012-12-9,27.7,24.2,20.5,24.1,21.2,17.3,96,88,80,30.17,29.78,3,1,8,0.00
2012-12-10,30.7,23.1,18.5,24.2,20.1,17.6,98,89,70,29.82,29.76,0,0,0,0.00
2012-12-11,19.6,16.2,12.6,17.6,12.7,8.9,94,86,78,30.00,29.74,4,0,12,0.00
2012-12-12,34.7,22.7,7.0,25.4,16.5,4.7,93,78,59,30.11,29.87,8,2,14,0.00
2012-12-13,45.1,33.4,27.3,26.8,21.9,18.1,91,65,34,30.09,29.88,4,1,8,0.01
2012-12-14,36.5,28.7,24.3,27.5,25.2,22.4,94,87,67,30.16,29.97,5,1,11,0.00
2012-12-15,35.1,32.4,29.1,32.9,31.5,26.6,99,96,90,29.97,29.46,4,1,8,0.06
2012-12-16,34.5,31.8,25.2,34.3,31.5,24.7,99,99,98,29.64,29.45,4,0,7,0.09
2012-12-17,25.2,22.9,21.4,24.7,21.3,19.4,99,94,87,29.69,29.63,0,0,0,0.00
2012-12-18,29.8,22.0,12.0,22.3,18.7,10.2,93,87,71,29.82,29.62,0,0,0,0.00
2012-12-19,27.0,21.3,10.2,25.8,20.1,8.4,97,95,92,29.99,29.81,0,0,0,0.00
2012-12-20,29.7,26.5,23.7,29.4,25.9,22.7,99,97,95,29.95,29.56,0,0,0,0.03
2012-12-21,25.2,19.8,6.6,24.4,16.9,3.7,97,88,75,30.16,29.69,0,0,0,0.02
2012-12-22,33.8,13.3,-2.0,17.1,7.5,-4.3,92,79,44,30.18,29.85,0,0,0,0.00
2012-12-23,28.8,15.1,5.5,16.0,10.2,2.7,92,81,52,30.08,29.93,0,0,0,0.00
2012-12-24,25.0,14.1,9.3,16.6,10.1,5.0,90,84,66,30.18,29.95,0,0,0,0.00
2012-12-25,25.0,8.2,-9.0,12.2,3.3,-11.5,89,80,53,30.47,30.18,0,0,0,0.00
2012-12-26,22.6,7.8,-11.4,15.0,3.9,-13.8,90,83,67,30.46,30.20,0,0,0,0.00
2012-12-27,32.7,17.8,11.8,16.2,12.4,8.5,90,80,48,30.24,30.11,2,0,4,0.00
2012-12-28,24.8,17.1,9.7,16.8,13.5,6.9,94,86,69,30.17,29.95,3,0,4,0.00
2012-12-29,23.9,16.8,9.5,18.7,13.8,7.7,94,88,76,30.06,29.92,2,0,4,0.00
2012-12-30,25.0,14.8,4.3,13.6,9.4,1.5,90,79,56,30.16,29.83,4,1,8,0.00
2012-12-31,19.8,11.1,-3.6,16.4,5.7,-6.5,90,78,59,30.19,29.81,5,1,12,0.00
2013-1-1,20.5,6.6,-7.6,8.5,-0.4,-10.0,88,74,41,30.24,30.00,4,0,8,0.00